createdAt,value
2023-02-07T00:02:23.452Z,-2.00
2023-02-07T00:05:20.300Z,-2.00
2023-02-07T00:08:17.239Z,-2.00
2023-02-07T00:11:19.333Z,-2.10
2023-02-07T00:14:16.178Z,-2.10
2023-02-07T00:17:13.009Z,-2.20
2023-02-07T00:20:10.911Z,-2.30
2023-02-07T00:23:07.720Z,-2.40
2023-02-07T00:26:07.371Z,-2.50
2023-02-07T00:29:05.053Z,-2.50
2023-02-07T00:32:01.905Z,-2.70
2023-02-07T00:34:58.734Z,-2.70
2023-02-07T00:37:55.629Z,-2.60
2023-02-07T00:40:52.466Z,-2.60
2023-02-07T00:43:49.286Z,-2.60
2023-02-07T00:46:46.213Z,-2.70
2023-02-07T00:49:43.037Z,-2.90
2023-02-07T00:52:39.857Z,-2.70
2023-02-07T00:55:36.944Z,-2.80
2023-02-07T00:58:34.226Z,-2.90
2023-02-07T01:01:31.337Z,-3.00
2023-02-07T01:04:28.280Z,-3.00
2023-02-07T01:07:25.154Z,-2.90
2023-02-07T01:10:22.834Z,-2.90
2023-02-07T01:13:19.961Z,-2.80
2023-02-07T01:16:36.272Z,-2.70
2023-02-07T01:19:33.089Z,-2.80
2023-02-07T01:22:29.939Z,-2.80
2023-02-07T01:25:26.828Z,-2.80
2023-02-07T01:28:23.662Z,-2.90
2023-02-07T01:31:22.156Z,-2.80
2023-02-07T01:34:19.390Z,-2.80
2023-02-07T01:37:16.364Z,-2.90
2023-02-07T01:40:13.789Z,-2.90
2023-02-07T01:43:22.479Z,-2.80
2023-02-07T01:46:19.311Z,-3.00
2023-02-07T01:49:22.005Z,-2.90
2023-02-07T01:52:26.229Z,-3.00
2023-02-07T01:55:31.885Z,-3.10
2023-02-07T01:58:29.086Z,-3.10
2023-02-07T02:01:26.584Z,-3.00
2023-02-07T02:04:23.685Z,-3.20
2023-02-07T02:07:21.808Z,-3.20
2023-02-07T02:10:24.767Z,-3.20
2023-02-07T02:13:47.688Z,-3.30
2023-02-07T02:17:18.235Z,-3.20
2023-02-07T02:20:27.472Z,-3.30
2023-02-07T02:24:13.239Z,-3.40
2023-02-07T02:27:52.349Z,-3.40
2023-02-07T02:31:04.673Z,-3.40
2023-02-07T02:34:21.685Z,-3.40
2023-02-07T02:37:52.435Z,-3.40
2023-02-07T02:41:01.669Z,-3.60
2023-02-07T02:44:18.573Z,-3.60
2023-02-07T02:47:17.731Z,-3.70
2023-02-07T02:50:21.361Z,-3.60
2023-02-07T02:53:18.237Z,-3.70
2023-02-07T02:56:36.524Z,-3.90
2023-02-07T03:00:13.904Z,-4.10
2023-02-07T03:03:37.146Z,-4.20
2023-02-07T03:06:42.400Z,-4.30
2023-02-07T03:10:10.983Z,-4.40
2023-02-07T03:13:27.472Z,-4.60
2023-02-07T03:16:42.853Z,-4.60
2023-02-07T03:19:51.530Z,-4.60
2023-02-07T03:22:50.985Z,-4.60
2023-02-07T03:25:50.618Z,-4.60
2023-02-07T03:28:49.542Z,-4.70
2023-02-07T03:31:51.557Z,-4.80
2023-02-07T03:34:58.266Z,-4.90
2023-02-07T03:38:00.560Z,-4.80
2023-02-07T03:41:04.956Z,-4.90
2023-02-07T03:44:07.034Z,-5.00
2023-02-07T03:47:04.749Z,-4.90
2023-02-07T03:50:01.606Z,-5.10
2023-02-07T03:52:58.424Z,-5.20
2023-02-07T03:55:55.353Z,-5.20
2023-02-07T03:58:52.287Z,-5.20
2023-02-07T04:01:49.894Z,-5.20
2023-02-07T04:04:46.763Z,-5.30
2023-02-07T04:07:43.653Z,-5.30
2023-02-07T04:10:40.532Z,-5.10
2023-02-07T04:13:37.595Z,-5.10
2023-02-07T04:16:34.568Z,-5.20
2023-02-07T04:19:31.464Z,-5.20
2023-02-07T04:22:29.516Z,-5.20
2023-02-07T04:25:26.425Z,-5.30
2023-02-07T04:28:23.407Z,-5.40
2023-02-07T04:31:20.295Z,-5.50
2023-02-07T04:34:17.159Z,-5.70
2023-02-07T04:37:14.294Z,-5.70
2023-02-07T04:40:11.581Z,-5.70
2023-02-07T04:43:08.396Z,-5.70
2023-02-07T04:46:06.572Z,-5.70
2023-02-07T04:49:04.273Z,-5.80
2023-02-07T04:52:01.121Z,-5.60
2023-02-07T04:54:57.968Z,-5.70
2023-02-07T04:57:54.796Z,-5.80
2023-02-07T05:00:53.286Z,-5.80
2023-02-07T05:03:50.229Z,-5.90
2023-02-07T05:06:47.790Z,-5.90
2023-02-07T05:09:44.671Z,-5.80
2023-02-07T05:12:41.493Z,-5.80
2023-02-07T05:15:38.789Z,-5.80
2023-02-07T05:18:35.816Z,-5.80
2023-02-07T05:21:32.821Z,-5.60
2023-02-07T05:24:29.881Z,-5.70
2023-02-07T05:27:26.979Z,-5.70
2023-02-07T05:30:24.301Z,-5.70
2023-02-07T05:33:21.144Z,-5.70
2023-02-07T05:36:17.955Z,-5.70
2023-02-07T05:39:14.840Z,-5.70
2023-02-07T05:42:14.664Z,-5.60
2023-02-07T05:45:11.984Z,-5.60
2023-02-07T05:48:08.958Z,-5.60
2023-02-07T05:51:06.125Z,-5.70
2023-02-07T05:54:03.040Z,-5.80
2023-02-07T05:56:59.861Z,-5.80
2023-02-07T05:59:57.229Z,-5.90
2023-02-07T06:02:54.089Z,-5.90
2023-02-07T06:05:51.226Z,-5.90
2023-02-07T06:08:48.165Z,-5.90
2023-02-07T06:11:44.972Z,-6.00
2023-02-07T06:14:41.842Z,-6.00
2023-02-07T06:17:38.627Z,-6.00
2023-02-07T06:20:35.527Z,-5.90
2023-02-07T06:23:32.385Z,-5.90
2023-02-07T06:26:29.438Z,-6.00
2023-02-07T06:29:26.261Z,-5.90
2023-02-07T06:32:23.092Z,-5.70
2023-02-07T06:35:20.174Z,-5.70
2023-02-07T06:38:18.270Z,-5.70
2023-02-07T06:41:15.308Z,-5.50
2023-02-07T06:44:12.160Z,-5.60
2023-02-07T06:47:09.071Z,-5.60
2023-02-07T06:50:08.870Z,-5.70
2023-02-07T06:53:05.978Z,-5.80
2023-02-07T06:56:02.940Z,-5.90
2023-02-07T06:58:59.853Z,-6.00
2023-02-07T07:01:56.749Z,-6.00
2023-02-07T07:04:53.564Z,-6.10
2023-02-07T07:07:51.595Z,-6.10
2023-02-07T07:10:48.458Z,-6.20
2023-02-07T07:13:45.389Z,-6.20
2023-02-07T07:16:42.225Z,-6.20
2023-02-07T07:19:39.098Z,-6.20
2023-02-07T07:22:35.929Z,-6.20
2023-02-07T07:25:32.747Z,-6.30
2023-02-07T07:28:30.074Z,-6.30
2023-02-07T07:31:27.861Z,-6.20
2023-02-07T07:34:24.722Z,-6.30
2023-02-07T07:37:21.635Z,-6.30
2023-02-07T07:40:18.528Z,-6.30
2023-02-07T07:43:15.384Z,-6.20
2023-02-07T07:46:12.234Z,-6.20
2023-02-07T07:49:09.376Z,-6.20
2023-02-07T07:52:06.441Z,-6.30
2023-02-07T07:55:03.705Z,-6.20
2023-02-07T07:58:00.611Z,-6.10
2023-02-07T08:00:57.571Z,-6.10
2023-02-07T08:03:54.582Z,-6.10
2023-02-07T08:06:51.455Z,-6.10
2023-02-07T08:09:48.331Z,-6.10
2023-02-07T08:12:45.134Z,-6.20
2023-02-07T08:15:42.266Z,-6.20
2023-02-07T08:18:39.068Z,-6.10
2023-02-07T08:21:36.007Z,-6.10
2023-02-07T08:24:34.504Z,-6.00
2023-02-07T08:27:31.348Z,-6.00
2023-02-07T08:30:28.218Z,-5.90
2023-02-07T08:33:25.040Z,-5.90
2023-02-07T08:36:21.996Z,-5.90
2023-02-07T08:39:19.009Z,-5.80
2023-02-07T08:42:15.830Z,-5.70
2023-02-07T08:45:14.173Z,-5.70
2023-02-07T08:48:11.059Z,-5.70
2023-02-07T08:51:09.306Z,-5.60
2023-02-07T08:54:06.252Z,-5.50
2023-02-07T08:57:03.634Z,-5.50
2023-02-07T09:00:01.077Z,-5.40
2023-02-07T09:02:57.890Z,-5.30
2023-02-07T09:05:59.442Z,-5.30
2023-02-07T09:08:56.280Z,-5.20
2023-02-07T09:11:53.135Z,-5.20
2023-02-07T09:14:49.957Z,-5.10
2023-02-07T09:17:46.745Z,-5.00
2023-02-07T09:20:44.277Z,-5.00
2023-02-07T09:23:41.872Z,-4.90
2023-02-07T09:26:39.062Z,-4.90
2023-02-07T09:29:36.287Z,-4.80
2023-02-07T09:32:34.298Z,-4.70
2023-02-07T09:35:31.222Z,-4.70
2023-02-07T09:38:28.416Z,-4.60
2023-02-07T09:41:53.100Z,-4.60
2023-02-07T09:45:03.644Z,-4.50
2023-02-07T09:48:11.140Z,-4.40
2023-02-07T09:51:13.382Z,-4.30
2023-02-07T09:54:31.915Z,-4.30
2023-02-07T09:57:46.937Z,-4.20
2023-02-07T10:00:53.876Z,-4.20
2023-02-07T10:04:36.285Z,-4.20
2023-02-07T10:07:33.597Z,-3.50
2023-02-07T10:10:50.864Z,-2.90
2023-02-07T10:14:22.392Z,-2.40
2023-02-07T10:17:46.125Z,-2.30
2023-02-07T10:21:10.055Z,-0.50
2023-02-07T10:24:44.360Z,1.30
2023-02-07T10:28:19.601Z,2.60
2023-02-07T10:31:19.094Z,3.70
2023-02-07T10:34:23.484Z,3.30
2023-02-07T10:37:27.306Z,3.30
2023-02-07T10:40:41.046Z,3.40
2023-02-07T10:43:41.754Z,3.50
2023-02-07T10:46:42.612Z,3.60
2023-02-07T10:49:39.955Z,4.20
2023-02-07T10:52:44.184Z,4.70
2023-02-07T10:55:48.063Z,5.50
2023-02-07T10:58:44.979Z,6.00
2023-02-07T11:01:41.836Z,6.50
2023-02-07T11:04:42.729Z,6.90
2023-02-07T11:07:47.463Z,7.20
2023-02-07T11:10:46.838Z,7.10
2023-02-07T11:13:50.897Z,7.10
2023-02-07T11:16:48.715Z,7.10
2023-02-07T11:19:45.693Z,7.30
2023-02-07T11:22:43.436Z,7.90
2023-02-07T11:25:47.433Z,7.90
2023-02-07T11:28:44.592Z,7.90
2023-02-07T11:31:44.725Z,7.20
2023-02-07T11:34:57.154Z,7.50
2023-02-07T11:38:06.402Z,7.90
2023-02-07T11:41:06.760Z,8.40
2023-02-07T11:44:17.129Z,7.90
2023-02-07T11:47:19.816Z,8.60
2023-02-07T11:50:27.305Z,8.60
2023-02-07T11:53:44.109Z,8.10
2023-02-07T11:56:45.344Z,8.70
2023-02-07T12:00:16.999Z,8.30
2023-02-07T12:03:28.661Z,8.10
2023-02-07T12:06:39.328Z,8.40
2023-02-07T12:09:57.298Z,8.30
2023-02-07T12:13:12.405Z,8.30
2023-02-07T12:16:24.364Z,8.20
2023-02-07T12:19:34.281Z,8.40
2023-02-07T12:22:44.556Z,7.80
2023-02-07T12:26:22.951Z,7.60
2023-02-07T12:30:10.651Z,8.30
2023-02-07T12:33:43.980Z,8.20
2023-02-07T12:36:48.415Z,8.30
2023-02-07T12:40:24.890Z,7.70
2023-02-07T12:43:35.916Z,7.50
2023-02-07T12:47:10.700Z,7.00
2023-02-07T12:50:23.795Z,6.80
2023-02-07T12:53:48.576Z,5.80
2023-02-07T12:57:41.323Z,5.50
2023-02-07T13:01:28.582Z,4.90
2023-02-07T13:05:04.219Z,4.90
2023-02-07T13:08:54.175Z,4.50
2023-02-07T13:12:29.465Z,4.90
2023-02-07T13:15:59.158Z,4.70
2023-02-07T13:19:14.032Z,4.60
2023-02-07T13:22:43.228Z,4.70
2023-02-07T13:25:47.333Z,4.90
2023-02-07T13:28:59.025Z,4.60
2023-02-07T13:32:03.319Z,4.50
2023-02-07T13:35:06.432Z,4.50
2023-02-07T13:38:51.691Z,4.20
2023-02-07T13:42:32.312Z,4.40
2023-02-07T13:45:37.305Z,4.90
2023-02-07T13:48:55.748Z,4.90
2023-02-07T13:52:16.995Z,4.70
2023-02-07T13:55:38.518Z,4.70
2023-02-07T13:58:53.751Z,4.90
2023-02-07T14:01:57.952Z,4.80
2023-02-07T14:05:06.580Z,4.50
2023-02-07T14:08:25.708Z,4.00
2023-02-07T14:11:36.310Z,3.50
2023-02-07T14:14:38.942Z,3.30
2023-02-07T14:17:44.865Z,3.10
2023-02-07T14:20:41.716Z,3.10
2023-02-07T14:23:57.295Z,3.20
2023-02-07T14:27:00.763Z,3.20
2023-02-07T14:30:00.539Z,3.30
2023-02-07T14:33:16.583Z,2.90
2023-02-07T14:36:13.240Z,2.80
2023-02-07T14:39:18.894Z,3.00
2023-02-07T14:42:21.939Z,3.00
2023-02-07T14:45:21.772Z,2.90
2023-02-07T14:48:37.356Z,2.80
2023-02-07T14:51:53.610Z,2.70
2023-02-07T14:55:14.040Z,2.70
2023-02-07T14:58:28.180Z,2.50
2023-02-07T15:01:25.931Z,2.40
2023-02-07T15:04:22.828Z,2.40
2023-02-07T15:07:19.671Z,2.40
2023-02-07T15:10:36.814Z,2.30
2023-02-07T15:14:02.092Z,2.20
2023-02-07T15:17:00.605Z,2.30
2023-02-07T15:19:57.521Z,2.20
2023-02-07T15:22:57.291Z,2.00
2023-02-07T15:25:54.285Z,2.00
2023-02-07T15:29:04.358Z,2.00
2023-02-07T15:32:01.468Z,2.00
2023-02-07T15:35:11.881Z,1.80
2023-02-07T15:38:23.787Z,1.70
2023-02-07T15:41:20.645Z,1.50
2023-02-07T15:44:27.739Z,1.40
2023-02-07T15:47:32.930Z,1.30
2023-02-07T15:50:30.994Z,1.10
2023-02-07T15:53:30.478Z,1.00
2023-02-07T15:56:30.028Z,0.90
2023-02-07T15:59:31.955Z,0.80
2023-02-07T16:02:38.986Z,0.70
2023-02-07T16:05:39.006Z,0.50
2023-02-07T16:08:40.980Z,0.40
2023-02-07T16:11:39.952Z,0.30
2023-02-07T16:14:41.159Z,0.40
2023-02-07T16:17:42.032Z,0.50
2023-02-07T16:20:41.989Z,0.60
2023-02-07T16:23:39.086Z,0.40
2023-02-07T16:26:37.176Z,0.30
2023-02-07T16:29:36.240Z,0.20
2023-02-07T16:32:34.188Z,0.10
2023-02-07T16:35:31.006Z,-0.10
2023-02-07T16:38:27.823Z,-0.10
2023-02-07T16:41:32.309Z,-0.10
2023-02-07T16:44:31.180Z,-0.30
2023-02-07T16:47:28.161Z,-0.30
2023-02-07T16:50:28.338Z,-0.40
2023-02-07T16:53:25.417Z,-0.60
2023-02-07T16:56:26.838Z,-0.70
2023-02-07T16:59:24.796Z,-0.90
2023-02-07T17:02:21.625Z,-0.90
2023-02-07T17:05:22.675Z,-0.80
2023-02-07T17:08:26.939Z,-0.80
2023-02-07T17:11:25.756Z,-0.90
2023-02-07T17:14:22.677Z,-1.10
2023-02-07T17:17:19.504Z,-1.20
2023-02-07T17:20:30.657Z,-1.10
2023-02-07T17:23:28.719Z,-1.20
2023-02-07T17:26:31.277Z,-1.40
2023-02-07T17:29:28.240Z,-1.40
2023-02-07T17:32:25.109Z,-1.50
2023-02-07T17:35:22.083Z,-1.60
2023-02-07T17:38:18.983Z,-1.70
2023-02-07T17:41:17.811Z,-1.80
2023-02-07T17:44:14.624Z,-1.80
2023-02-07T17:47:11.705Z,-1.90
2023-02-07T17:50:22.114Z,-1.90
2023-02-07T17:53:21.442Z,-1.90
2023-02-07T17:56:29.301Z,-1.90
2023-02-07T17:59:26.226Z,-2.00
2023-02-07T18:02:23.132Z,-2.00
2023-02-07T18:05:20.377Z,-2.10
2023-02-07T18:08:17.234Z,-2.20
2023-02-07T18:11:14.428Z,-2.20
2023-02-07T18:14:11.597Z,-2.10
2023-02-07T18:17:11.089Z,-2.10
2023-02-07T18:20:11.057Z,-2.00
2023-02-07T18:23:07.962Z,-2.00
2023-02-07T18:26:05.090Z,-2.00
2023-02-07T18:29:01.894Z,-2.00
2023-02-07T18:31:58.704Z,-1.80
2023-02-07T18:34:55.615Z,-1.70
2023-02-07T18:37:52.549Z,-1.80
2023-02-07T18:40:49.464Z,-1.80
2023-02-07T18:43:46.755Z,-1.90
2023-02-07T18:46:43.661Z,-1.80
2023-02-07T18:49:40.504Z,-1.90
2023-02-07T18:52:38.767Z,-1.90
2023-02-07T18:55:36.661Z,-1.90
2023-02-07T18:58:34.457Z,-2.00
2023-02-07T19:01:31.686Z,-2.10
2023-02-07T19:04:28.811Z,-2.20
2023-02-07T19:07:25.730Z,-2.30
2023-02-07T19:10:23.442Z,-2.30
2023-02-07T19:13:20.300Z,-2.50
2023-02-07T19:16:22.135Z,-2.50
2023-02-07T19:19:19.007Z,-2.60
2023-02-07T19:22:21.568Z,-2.80
2023-02-07T19:25:23.778Z,-2.70
2023-02-07T19:28:20.636Z,-2.70
2023-02-07T19:31:18.288Z,-2.80
2023-02-07T19:34:15.407Z,-2.60
2023-02-07T19:37:12.263Z,-2.70
2023-02-07T19:40:10.418Z,-2.90
2023-02-07T19:43:07.361Z,-2.90
2023-02-07T19:46:04.370Z,-2.90
2023-02-07T19:49:01.290Z,-2.90
2023-02-07T19:51:58.094Z,-2.90
2023-02-07T19:54:55.936Z,-2.80
2023-02-07T19:57:54.531Z,-2.60
2023-02-07T20:00:51.352Z,-2.90
2023-02-07T20:03:52.578Z,-2.90
2023-02-07T20:06:49.433Z,-2.70
2023-02-07T20:09:46.591Z,-2.70
2023-02-07T20:12:43.405Z,-2.80
2023-02-07T20:15:41.658Z,-2.90
2023-02-07T20:18:38.769Z,-2.90
2023-02-07T20:21:37.053Z,-3.00
2023-02-07T20:24:33.909Z,-3.00
2023-02-07T20:27:30.714Z,-3.20
2023-02-07T20:30:27.896Z,-3.20
2023-02-07T20:33:24.897Z,-3.10
2023-02-07T20:36:22.141Z,-3.20
2023-02-07T20:39:21.798Z,-3.30
2023-02-07T20:42:19.522Z,-3.20
2023-02-07T20:45:16.646Z,-3.20
2023-02-07T20:48:15.101Z,-3.30
2023-02-07T20:51:11.996Z,-3.20
2023-02-07T20:54:11.256Z,-3.10
2023-02-07T20:57:08.061Z,-3.20
2023-02-07T21:00:07.494Z,-3.20
2023-02-07T21:03:04.365Z,-3.30
2023-02-07T21:06:01.176Z,-3.30
2023-02-07T21:09:00.700Z,-3.40
2023-02-07T21:11:58.520Z,-3.40
2023-02-07T21:14:55.762Z,-3.40
2023-02-07T21:17:52.576Z,-3.40
2023-02-07T21:20:49.779Z,-3.40
2023-02-07T21:23:46.596Z,-3.40
2023-02-07T21:26:43.843Z,-3.40
2023-02-07T21:29:40.804Z,-3.40
2023-02-07T21:32:37.592Z,-3.30
2023-02-07T21:35:34.477Z,-3.40
2023-02-07T21:38:31.348Z,-3.40
2023-02-07T21:41:29.237Z,-3.60
2023-02-07T21:44:26.155Z,-3.60
2023-02-07T21:47:22.956Z,-3.50
2023-02-07T21:50:19.813Z,-3.60
2023-02-07T21:53:17.277Z,-3.60
2023-02-07T21:56:20.306Z,-3.70
2023-02-07T21:59:19.495Z,-3.70
2023-02-07T22:02:16.349Z,-3.70
2023-02-07T22:05:13.186Z,-3.80
2023-02-07T22:08:11.282Z,-3.80
2023-02-07T22:11:11.104Z,-3.80
2023-02-07T22:14:08.193Z,-3.80
2023-02-07T22:17:05.000Z,-3.90
2023-02-07T22:20:01.876Z,-3.90
2023-02-07T22:22:58.678Z,-3.90
2023-02-07T22:25:55.486Z,-4.00
2023-02-07T22:28:53.398Z,-4.00
2023-02-07T22:31:50.327Z,-4.00
2023-02-07T22:34:47.259Z,-4.00
2023-02-07T22:37:44.651Z,-4.10
2023-02-07T22:40:42.865Z,-4.10
2023-02-07T22:43:40.781Z,-4.10
2023-02-07T22:46:37.921Z,-4.00
2023-02-07T22:49:36.215Z,-4.10
2023-02-07T22:52:33.977Z,-4.10
2023-02-07T22:55:33.206Z,-4.20
2023-02-07T22:58:30.113Z,-4.30
2023-02-07T23:01:30.871Z,-4.20
2023-02-07T23:04:27.724Z,-4.20
2023-02-07T23:07:26.135Z,-4.20
2023-02-07T23:10:26.338Z,-4.30
2023-02-07T23:13:23.449Z,-4.20
2023-02-07T23:16:24.725Z,-4.30
2023-02-07T23:19:21.520Z,-4.30
2023-02-07T23:22:18.414Z,-4.40
2023-02-07T23:25:16.102Z,-4.40
2023-02-07T23:28:14.292Z,-4.50
2023-02-07T23:31:15.109Z,-4.40
2023-02-07T23:34:12.131Z,-4.50
2023-02-07T23:37:08.945Z,-4.60
2023-02-07T23:40:06.331Z,-4.60
2023-02-07T23:43:03.141Z,-4.60
2023-02-07T23:46:00.014Z,-4.60
2023-02-07T23:48:56.834Z,-4.60
2023-02-07T23:51:53.665Z,-4.60
2023-02-07T23:54:50.504Z,-4.60
2023-02-07T23:57:47.339Z,-4.60
